sensor_id;sensor_type;location;lat;lon;timestamp;pressure;altitude;pressure_sealevel;temperature;humidity
21547;BME280;41275;51.912;4.388;2024-01-27T00:01:31;103453.06;;;11.44;49.58
21547;BME280;41275;51.912;4.388;2024-01-27T00:06:52;103451.72;;;11.48;49.58
21547;BME280;41275;51.912;4.388;2024-01-27T00:12:13;103454.53;;;11.46;49.63
21547;BME280;41275;51.912;4.388;2024-01-27T00:17:34;103458.19;;;11.45;49.65
21547;BME280;41275;51.912;4.388;2024-01-27T00:22:56;103472.59;;;11.43;49.46
21547;BME280;41275;51.912;4.388;2024-01-27T00:33:28;103449.22;;;11.38;49.56
21547;BME280;41275;51.912;4.388;2024-01-27T00:38:50;103465.97;;;11.39;49.43
21547;BME280;41275;51.912;4.388;2024-01-27T00:44:11;103446.75;;;11.37;49.62
21547;BME280;41275;51.912;4.388;2024-01-27T00:49:32;103464.31;;;11.38;49.21
21547;BME280;41275;51.912;4.388;2024-01-27T00:54:53;103470.78;;;11.35;49.33
21547;BME280;41275;51.912;4.388;2024-01-27T01:00:15;103471.28;;;11.30;49.57
21547;BME280;41275;51.912;4.388;2024-01-27T01:05:36;103479.91;;;11.33;49.67
21547;BME280;41275;51.912;4.388;2024-01-27T01:10:57;103476.59;;;11.22;49.46
21547;BME280;41275;51.912;4.388;2024-01-27T01:16:19;103478.22;;;11.15;49.86
21547;BME280;41275;51.912;4.388;2024-01-27T01:21:40;103474.56;;;11.08;49.84
21547;BME280;41275;51.912;4.388;2024-01-27T01:27:01;103475.56;;;10.99;49.85
21547;BME280;41275;51.912;4.388;2024-01-27T01:32:22;103473.75;;;10.91;50.07
21547;BME280;41275;51.912;4.388;2024-01-27T01:37:43;103478.53;;;10.96;50.07
21547;BME280;41275;51.912;4.388;2024-01-27T01:43:11;103461.00;;;10.95;50.44
21547;BME280;41275;51.912;4.388;2024-01-27T01:48:35;103462.00;;;10.94;50.35
21547;BME280;41275;51.912;4.388;2024-01-27T01:54:00;103472.91;;;10.91;50.61
21547;BME280;41275;51.912;4.388;2024-01-27T01:59:22;103473.22;;;10.88;50.63
21547;BME280;41275;51.912;4.388;2024-01-27T02:04:44;103483.31;;;10.84;50.86
21547;BME280;41275;51.912;4.388;2024-01-27T02:10:14;103493.09;;;10.75;50.97
21547;BME280;41275;51.912;4.388;2024-01-27T02:15:36;103483.63;;;10.65;51.16
21547;BME280;41275;51.912;4.388;2024-01-27T02:20:58;103481.13;;;10.55;51.41
21547;BME280;41275;51.912;4.388;2024-01-27T02:26:19;103481.75;;;10.49;51.37
21547;BME280;41275;51.912;4.388;2024-01-27T02:31:43;103490.50;;;10.41;51.34
21547;BME280;41275;51.912;4.388;2024-01-27T02:37:05;103493.97;;;10.34;51.61
21547;BME280;41275;51.912;4.388;2024-01-27T02:42:26;103488.47;;;10.27;51.67
21547;BME280;41275;51.912;4.388;2024-01-27T02:47:48;103483.63;;;10.22;51.57
21547;BME280;41275;51.912;4.388;2024-01-27T02:53:09;103487.91;;;10.23;52.12
21547;BME280;41275;51.912;4.388;2024-01-27T02:58:30;103485.44;;;10.22;51.86
21547;BME280;41275;51.912;4.388;2024-01-27T03:03:51;103498.31;;;10.17;52.06
21547;BME280;41275;51.912;4.388;2024-01-27T03:09:13;103495.31;;;10.12;52.11
21547;BME280;41275;51.912;4.388;2024-01-27T03:14:34;103497.94;;;10.12;52.28
21547;BME280;41275;51.912;4.388;2024-01-27T03:19:56;103511.34;;;10.10;52.56
21547;BME280;41275;51.912;4.388;2024-01-27T03:25:17;103509.97;;;10.06;52.42
21547;BME280;41275;51.912;4.388;2024-01-27T03:30:38;103503.34;;;10.02;52.46
21547;BME280;41275;51.912;4.388;2024-01-27T03:35:59;103500.88;;;10.00;52.80
21547;BME280;41275;51.912;4.388;2024-01-27T03:41:21;103497.56;;;9.98;52.47
21547;BME280;41275;51.912;4.388;2024-01-27T03:46:42;103496.06;;;9.96;52.80
21547;BME280;41275;51.912;4.388;2024-01-27T03:52:04;103493.06;;;9.91;52.80
21547;BME280;41275;51.912;4.388;2024-01-27T03:57:25;103479.81;;;9.91;52.72
21547;BME280;41275;51.912;4.388;2024-01-27T04:02:46;103486.56;;;9.85;52.80
21547;BME280;41275;51.912;4.388;2024-01-27T04:08:07;103492.84;;;9.84;53.03
21547;BME280;41275;51.912;4.388;2024-01-27T04:13:29;103498.94;;;9.84;52.60
21547;BME280;41275;51.912;4.388;2024-01-27T04:18:50;103510.06;;;9.88;53.08
21547;BME280;41275;51.912;4.388;2024-01-27T04:24:13;103510.84;;;9.80;53.35
21547;BME280;41275;51.912;4.388;2024-01-27T04:29:36;103505.72;;;9.79;53.25
21547;BME280;41275;51.912;4.388;2024-01-27T04:34:57;103496.31;;;9.84;53.16
21547;BME280;41275;51.912;4.388;2024-01-27T04:40:18;103490.72;;;9.88;53.56
21547;BME280;41275;51.912;4.388;2024-01-27T04:45:40;103488.69;;;9.81;53.50
21547;BME280;41275;51.912;4.388;2024-01-27T04:51:01;103499.78;;;9.85;53.65
21547;BME280;41275;51.912;4.388;2024-01-27T04:56:22;103503.63;;;9.91;53.47
21547;BME280;41275;51.912;4.388;2024-01-27T05:01:44;103484.25;;;9.90;53.62
21547;BME280;41275;51.912;4.388;2024-01-27T05:07:06;103493.72;;;9.93;53.57
21547;BME280;41275;51.912;4.388;2024-01-27T05:12:27;103490.06;;;9.94;53.63
21547;BME280;41275;51.912;4.388;2024-01-27T05:17:48;103493.06;;;9.91;53.60
21547;BME280;41275;51.912;4.388;2024-01-27T05:23:10;103497.50;;;9.90;53.91
21547;BME280;41275;51.912;4.388;2024-01-27T05:28:31;103501.28;;;9.88;53.80
21547;BME280;41275;51.912;4.388;2024-01-27T05:33:52;103497.31;;;9.83;53.95
21547;BME280;41275;51.912;4.388;2024-01-27T05:39:14;103504.25;;;9.84;54.23
21547;BME280;41275;51.912;4.388;2024-01-27T05:44:35;103488.03;;;9.79;54.18
21547;BME280;41275;51.912;4.388;2024-01-27T05:49:56;103503.88;;;9.79;54.27
21547;BME280;41275;51.912;4.388;2024-01-27T05:55:18;103507.44;;;9.70;54.16
21547;BME280;41275;51.912;4.388;2024-01-27T06:00:39;103491.38;;;9.64;54.25
21547;BME280;41275;51.912;4.388;2024-01-27T06:06:00;103484.75;;;9.59;53.79
21547;BME280;41275;51.912;4.388;2024-01-27T06:11:25;103470.47;;;9.52;54.01
21547;BME280;41275;51.912;4.388;2024-01-27T06:16:47;103495.69;;;9.47;53.79
21547;BME280;41275;51.912;4.388;2024-01-27T06:22:08;103482.59;;;9.37;54.15
21547;BME280;41275;51.912;4.388;2024-01-27T06:27:29;103494.63;;;9.31;53.72
21547;BME280;41275;51.912;4.388;2024-01-27T06:32:51;103502.16;;;9.26;54.06
21547;BME280;41275;51.912;4.388;2024-01-27T06:38:12;103516.88;;;9.29;53.85
21547;BME280;41275;51.912;4.388;2024-01-27T06:43:33;103518.31;;;9.23;53.63
21547;BME280;41275;51.912;4.388;2024-01-27T06:48:55;103517.25;;;9.16;53.77
21547;BME280;41275;51.912;4.388;2024-01-27T06:54:16;103517.56;;;9.13;54.26
21547;BME280;41275;51.912;4.388;2024-01-27T06:59:37;103523.09;;;9.20;54.16
21547;BME280;41275;51.912;4.388;2024-01-27T07:04:58;103534.16;;;9.23;53.74
21547;BME280;41275;51.912;4.388;2024-01-27T07:10:20;103518.09;;;9.17;53.93
21547;BME280;41275;51.912;4.388;2024-01-27T07:15:41;103513.09;;;9.14;54.31
21547;BME280;41275;51.912;4.388;2024-01-27T07:21:02;103513.34;;;9.20;54.19
21547;BME280;41275;51.912;4.388;2024-01-27T07:26:24;103514.63;;;9.16;54.06
21547;BME280;41275;51.912;4.388;2024-01-27T07:31:45;103507.53;;;9.17;54.03
21547;BME280;41275;51.912;4.388;2024-01-27T07:37:06;103519.16;;;9.24;54.69
21547;BME280;41275;51.912;4.388;2024-01-27T07:42:28;103515.53;;;9.25;54.79
21547;BME280;41275;51.912;4.388;2024-01-27T07:47:49;103507.72;;;9.23;54.40
21547;BME280;41275;51.912;4.388;2024-01-27T07:53:11;103508.72;;;9.22;54.39
21547;BME280;41275;51.912;4.388;2024-01-27T07:58:32;103506.91;;;9.23;54.41
21547;BME280;41275;51.912;4.388;2024-01-27T08:03:53;103502.84;;;9.28;54.67
21547;BME280;41275;51.912;4.388;2024-01-27T08:09:15;103510.47;;;9.31;54.63
21547;BME280;41275;51.912;4.388;2024-01-27T08:14:36;103528.66;;;9.34;54.69
21547;BME280;41275;51.912;4.388;2024-01-27T08:19:57;103535.28;;;9.39;54.44
21547;BME280;41275;51.912;4.388;2024-01-27T08:25:19;103539.81;;;9.46;54.60
21547;BME280;41275;51.912;4.388;2024-01-27T08:30:40;103550.44;;;9.54;54.31
21547;BME280;41275;51.912;4.388;2024-01-27T08:36:01;103563.44;;;9.66;54.33
21547;BME280;41275;51.912;4.388;2024-01-27T08:41:23;103557.84;;;9.69;54.07
21547;BME280;41275;51.912;4.388;2024-01-27T08:46:44;103552.03;;;9.83;54.58
21547;BME280;41275;51.912;4.388;2024-01-27T08:52:05;103545.19;;;9.98;54.35
21547;BME280;41275;51.912;4.388;2024-01-27T08:57:27;103548.53;;;10.08;54.54
21547;BME280;41275;51.912;4.388;2024-01-27T09:02:51;103536.50;;;10.14;54.20
21547;BME280;41275;51.912;4.388;2024-01-27T09:08:13;103558.03;;;10.19;54.16
21547;BME280;41275;51.912;4.388;2024-01-27T09:13:37;103569.56;;;10.36;54.19
21547;BME280;41275;51.912;4.388;2024-01-27T09:18:58;103576.09;;;10.50;54.20
21547;BME280;41275;51.912;4.388;2024-01-27T09:24:19;103568.34;;;10.65;53.79
21547;BME280;41275;51.912;4.388;2024-01-27T09:29:40;103575.72;;;10.79;53.74
21547;BME280;41275;51.912;4.388;2024-01-27T09:35:02;103574.41;;;10.91;53.35
21547;BME280;41275;51.912;4.388;2024-01-27T09:40:23;103562.50;;;10.95;53.28
21547;BME280;41275;51.912;4.388;2024-01-27T09:45:45;103572.28;;;11.03;52.98
21547;BME280;41275;51.912;4.388;2024-01-27T09:51:10;103592.19;;;11.15;52.86
21547;BME280;41275;51.912;4.388;2024-01-27T09:56:31;103604.97;;;11.20;52.62
21547;BME280;41275;51.912;4.388;2024-01-27T10:01:53;103600.34;;;11.30;52.45
21547;BME280;41275;51.912;4.388;2024-01-27T10:07:15;103600.53;;;11.45;52.27
21547;BME280;41275;51.912;4.388;2024-01-27T10:12:40;103603.53;;;11.58;52.12
21547;BME280;41275;51.912;4.388;2024-01-27T10:18:06;103609.84;;;11.73;51.73
21547;BME280;41275;51.912;4.388;2024-01-27T10:23:28;103598.94;;;11.85;51.76
21547;BME280;41275;51.912;4.388;2024-01-27T10:28:56;103598.41;;;12.06;51.51
21547;BME280;41275;51.912;4.388;2024-01-27T10:34:20;103598.06;;;12.17;51.19
21547;BME280;41275;51.912;4.388;2024-01-27T10:39:41;103604.50;;;12.31;50.70
21547;BME280;41275;51.912;4.388;2024-01-27T10:45:03;103617.25;;;12.43;50.67
21547;BME280;41275;51.912;4.388;2024-01-27T10:50:26;103625.84;;;12.45;50.11
21547;BME280;41275;51.912;4.388;2024-01-27T10:55:48;103617.06;;;12.45;50.07
21547;BME280;41275;51.912;4.388;2024-01-27T11:01:11;103605.75;;;12.59;49.68
21547;BME280;41275;51.912;4.388;2024-01-27T11:06:35;103608.00;;;12.78;49.45
21547;BME280;41275;51.912;4.388;2024-01-27T11:11:58;103596.66;;;12.85;49.48
21547;BME280;41275;51.912;4.388;2024-01-27T11:17:19;103598.25;;;13.02;48.92
21547;BME280;41275;51.912;4.388;2024-01-27T11:22:41;103594.63;;;12.95;48.53
21547;BME280;41275;51.912;4.388;2024-01-27T11:28:11;103588.44;;;13.02;48.69
21547;BME280;41275;51.912;4.388;2024-01-27T11:33:43;103591.34;;;13.16;48.28
21547;BME280;41275;51.912;4.388;2024-01-27T11:39:05;103601.00;;;13.17;48.20
21547;BME280;41275;51.912;4.388;2024-01-27T11:44:43;103593.06;;;13.09;48.11
21547;BME280;41275;51.912;4.388;2024-01-27T11:50:05;103591.53;;;13.14;47.62
21547;BME280;41275;51.912;4.388;2024-01-27T11:55:28;103584.59;;;13.36;47.60
21547;BME280;41275;51.912;4.388;2024-01-27T12:00:50;103572.06;;;13.45;47.42
21547;BME280;41275;51.912;4.388;2024-01-27T12:06:11;103567.22;;;13.48;47.49
21547;BME280;41275;51.912;4.388;2024-01-27T12:11:32;103558.34;;;13.56;47.47
21547;BME280;41275;51.912;4.388;2024-01-27T12:16:55;103554.78;;;13.64;47.12
21547;BME280;41275;51.912;4.388;2024-01-27T12:22:29;103546.19;;;13.77;46.79
21547;BME280;41275;51.912;4.388;2024-01-27T12:27:51;103530.66;;;13.95;47.39
21547;BME280;41275;51.912;4.388;2024-01-27T12:33:12;103531.06;;;14.51;47.77
21547;BME280;41275;51.912;4.388;2024-01-27T12:38:33;103533.03;;;15.00;46.54
21547;BME280;41275;51.912;4.388;2024-01-27T12:43:55;103526.56;;;15.31;45.40
21547;BME280;41275;51.912;4.388;2024-01-27T12:49:16;103529.06;;;15.88;45.46
21547;BME280;41275;51.912;4.388;2024-01-27T12:54:38;103543.53;;;16.01;43.89
21547;BME280;41275;51.912;4.388;2024-01-27T12:59:59;103527.72;;;15.71;43.35
21547;BME280;41275;51.912;4.388;2024-01-27T13:05:21;103524.34;;;15.62;43.35
21547;BME280;41275;51.912;4.388;2024-01-27T13:10:42;103522.94;;;15.94;43.12
21547;BME280;41275;51.912;4.388;2024-01-27T13:16:03;103523.41;;;16.05;42.61
21547;BME280;41275;51.912;4.388;2024-01-27T13:21:25;103522.88;;;15.81;42.70
21547;BME280;41275;51.912;4.388;2024-01-27T13:26:47;103522.63;;;15.55;42.50
21547;BME280;41275;51.912;4.388;2024-01-27T13:32:08;103517.34;;;15.33;42.61
21547;BME280;41275;51.912;4.388;2024-01-27T13:37:29;103529.16;;;15.24;43.19
21547;BME280;41275;51.912;4.388;2024-01-27T13:42:54;103520.59;;;15.07;43.26
21547;BME280;41275;51.912;4.388;2024-01-27T13:48:16;103502.09;;;14.84;42.96
21547;BME280;41275;51.912;4.388;2024-01-27T13:53:37;103507.78;;;14.60;43.33
21547;BME280;41275;51.912;4.388;2024-01-27T13:58:58;103525.38;;;14.54;43.90
21547;BME280;41275;51.912;4.388;2024-01-27T14:04:20;103515.53;;;14.55;44.29
21547;BME280;41275;51.912;4.388;2024-01-27T14:09:41;103513.41;;;14.50;43.91
21547;BME280;41275;51.912;4.388;2024-01-27T14:15:06;103507.31;;;14.41;44.34
21547;BME280;41275;51.912;4.388;2024-01-27T14:20:27;103509.94;;;14.35;44.47
21547;BME280;41275;51.912;4.388;2024-01-27T14:25:51;103506.13;;;14.44;44.69
21547;BME280;41275;51.912;4.388;2024-01-27T14:31:13;103492.69;;;14.67;44.78
21547;BME280;41275;51.912;4.388;2024-01-27T14:36:34;103489.16;;;15.03;44.55
21547;BME280;41275;51.912;4.388;2024-01-27T14:41:56;103491.44;;;15.06;43.60
21547;BME280;41275;51.912;4.388;2024-01-27T14:47:17;103484.97;;;15.43;43.61
21547;BME280;41275;51.912;4.388;2024-01-27T14:52:38;103489.75;;;15.76;43.12
21547;BME280;41275;51.912;4.388;2024-01-27T14:58:00;103481.56;;;15.56;42.48
21547;BME280;41275;51.912;4.388;2024-01-27T15:03:22;103473.91;;;15.18;42.61
21547;BME280;41275;51.912;4.388;2024-01-27T15:08:46;103470.34;;;14.89;42.76
21547;BME280;41275;51.912;4.388;2024-01-27T15:14:07;103474.03;;;14.67;43.10
21547;BME280;41275;51.912;4.388;2024-01-27T15:19:29;103475.59;;;14.61;43.62
21547;BME280;41275;51.912;4.388;2024-01-27T15:24:50;103463.50;;;14.44;43.97
21547;BME280;41275;51.912;4.388;2024-01-27T15:30:12;103482.25;;;14.36;44.09
21547;BME280;41275;51.912;4.388;2024-01-27T15:35:34;103483.22;;;14.13;44.47
21547;BME280;41275;51.912;4.388;2024-01-27T15:40:57;103485.59;;;13.93;44.81
21547;BME280;41275;51.912;4.388;2024-01-27T15:46:18;103479.34;;;13.57;45.29
21547;BME280;41275;51.912;4.388;2024-01-27T15:51:40;103478.72;;;13.32;45.89
21547;BME280;41275;51.912;4.388;2024-01-27T15:57:01;103481.84;;;13.12;46.37
21547;BME280;41275;51.912;4.388;2024-01-27T16:02:22;103472.34;;;12.95;47.08
21547;BME280;41275;51.912;4.388;2024-01-27T16:07:44;103478.25;;;12.82;47.36
21547;BME280;41275;51.912;4.388;2024-01-27T16:13:05;103477.84;;;12.70;47.67
21547;BME280;41275;51.912;4.388;2024-01-27T16:18:26;103473.75;;;12.60;48.60
21547;BME280;41275;51.912;4.388;2024-01-27T16:23:47;103482.41;;;12.53;48.92
21547;BME280;41275;51.912;4.388;2024-01-27T16:29:08;103486.88;;;12.53;49.35
21547;BME280;41275;51.912;4.388;2024-01-27T16:34:30;103494.34;;;12.58;49.27
21547;BME280;41275;51.912;4.388;2024-01-27T16:39:52;103497.84;;;12.58;49.55
21547;BME280;41275;51.912;4.388;2024-01-27T16:45:13;103508.31;;;12.51;50.11
21547;BME280;41275;51.912;4.388;2024-01-27T16:50:35;103494.59;;;12.40;49.92
21547;BME280;41275;51.912;4.388;2024-01-27T16:55:56;103491.78;;;12.33;50.05
21547;BME280;41275;51.912;4.388;2024-01-27T17:01:18;103478.03;;;12.29;50.58
21547;BME280;41275;51.912;4.388;2024-01-27T17:06:40;103481.22;;;12.25;50.71
21547;BME280;41275;51.912;4.388;2024-01-27T17:12:02;103482.22;;;12.24;50.82
21547;BME280;41275;51.912;4.388;2024-01-27T17:17:26;103486.53;;;12.25;50.88
21547;BME280;41275;51.912;4.388;2024-01-27T17:22:48;103469.13;;;12.22;50.94
21547;BME280;41275;51.912;4.388;2024-01-27T17:28:09;103469.63;;;12.18;51.09
21547;BME280;41275;51.912;4.388;2024-01-27T17:33:30;103459.72;;;12.12;51.08
21547;BME280;41275;51.912;4.388;2024-01-27T17:38:52;103453.44;;;12.04;50.99
21547;BME280;41275;51.912;4.388;2024-01-27T17:44:13;103444.81;;;11.94;51.15
21547;BME280;41275;51.912;4.388;2024-01-27T17:49:34;103438.09;;;11.84;51.21
21547;BME280;41275;51.912;4.388;2024-01-27T17:54:55;103444.53;;;11.73;51.30
21547;BME280;41275;51.912;4.388;2024-01-27T18:00:17;103443.56;;;11.66;51.36
21547;BME280;41275;51.912;4.388;2024-01-27T18:05:39;103439.28;;;11.57;51.47
21547;BME280;41275;51.912;4.388;2024-01-27T18:11:00;103442.28;;;11.45;51.62
21547;BME280;41275;51.912;4.388;2024-01-27T18:16:21;103445.25;;;11.34;51.82
21547;BME280;41275;51.912;4.388;2024-01-27T18:21:44;103454.53;;;11.30;51.76
21547;BME280;41275;51.912;4.388;2024-01-27T18:27:05;103462.69;;;11.28;51.91
21547;BME280;41275;51.912;4.388;2024-01-27T18:32:27;103448.09;;;11.24;51.95
21547;BME280;41275;51.912;4.388;2024-01-27T18:37:48;103440.47;;;11.21;51.92
21547;BME280;41275;51.912;4.388;2024-01-27T18:43:09;103455.88;;;11.18;52.03
21547;BME280;41275;51.912;4.388;2024-01-27T18:48:31;103442.94;;;11.15;51.78
21547;BME280;41275;51.912;4.388;2024-01-27T18:53:52;103456.88;;;11.09;51.93
21547;BME280;41275;51.912;4.388;2024-01-27T18:59:13;103453.22;;;11.01;51.75
21547;BME280;41275;51.912;4.388;2024-01-27T19:04:34;103445.94;;;10.95;51.80
21547;BME280;41275;51.912;4.388;2024-01-27T19:09:55;103449.91;;;10.91;51.63
21547;BME280;41275;51.912;4.388;2024-01-27T19:15:17;103465.28;;;10.88;51.85
21547;BME280;41275;51.912;4.388;2024-01-27T19:20:41;103466.47;;;10.85;51.46
21547;BME280;41275;51.912;4.388;2024-01-27T19:26:03;103441.44;;;10.88;51.56
21547;BME280;41275;51.912;4.388;2024-01-27T19:31:26;103444.09;;;10.88;51.44
21547;BME280;41275;51.912;4.388;2024-01-27T19:36:48;103440.31;;;10.90;51.19
21547;BME280;41275;51.912;4.388;2024-01-27T19:42:09;103442.28;;;10.88;50.97
21547;BME280;41275;51.912;4.388;2024-01-27T19:47:30;103455.50;;;10.88;50.70
21547;BME280;41275;51.912;4.388;2024-01-27T19:52:52;103456.84;;;10.84;50.65
21547;BME280;41275;51.912;4.388;2024-01-27T19:58:15;103458.34;;;10.78;50.58
21547;BME280;41275;51.912;4.388;2024-01-27T20:03:37;103454.03;;;10.77;50.24
21547;BME280;41275;51.912;4.388;2024-01-27T20:09:00;103445.91;;;10.71;50.02
21547;BME280;41275;51.912;4.388;2024-01-27T20:14:23;103442.41;;;10.62;49.95
21547;BME280;41275;51.912;4.388;2024-01-27T20:19:47;103442.91;;;10.57;50.15
21547;BME280;41275;51.912;4.388;2024-01-27T20:25:14;103432.13;;;10.51;49.96
21547;BME280;41275;51.912;4.388;2024-01-27T20:30:35;103427.47;;;10.45;50.24
21547;BME280;41275;51.912;4.388;2024-01-27T20:35:58;103412.91;;;10.41;50.17
21547;BME280;41275;51.912;4.388;2024-01-27T20:41:19;103407.59;;;10.41;50.25
21547;BME280;41275;51.912;4.388;2024-01-27T20:46:47;103400.16;;;10.36;49.91
21547;BME280;41275;51.912;4.388;2024-01-27T20:52:08;103394.72;;;10.38;50.23
21547;BME280;41275;51.912;4.388;2024-01-27T20:57:30;103391.09;;;10.47;49.88
21547;BME280;41275;51.912;4.388;2024-01-27T21:02:51;103395.88;;;10.51;49.59
21547;BME280;41275;51.912;4.388;2024-01-27T21:08:13;103384.16;;;10.54;49.76
21547;BME280;41275;51.912;4.388;2024-01-27T21:13:35;103376.22;;;10.62;49.32
21547;BME280;41275;51.912;4.388;2024-01-27T21:18:56;103369.09;;;10.71;49.07
21547;BME280;41275;51.912;4.388;2024-01-27T21:24:18;103374.41;;;10.79;49.09
21547;BME280;41275;51.912;4.388;2024-01-27T21:29:39;103370.91;;;10.87;48.90
21547;BME280;41275;51.912;4.388;2024-01-27T21:35:00;103382.19;;;10.97;48.57
21547;BME280;41275;51.912;4.388;2024-01-27T21:40:21;103390.78;;;10.99;48.04
21547;BME280;41275;51.912;4.388;2024-01-27T21:45:43;103391.09;;;10.88;48.20
21547;BME280;41275;51.912;4.388;2024-01-27T21:51:08;103387.81;;;10.69;48.17
21547;BME280;41275;51.912;4.388;2024-01-27T21:56:29;103391.28;;;10.53;48.66
21547;BME280;41275;51.912;4.388;2024-01-27T22:01:50;103376.63;;;10.33;48.81
21547;BME280;41275;51.912;4.388;2024-01-27T22:07:12;103360.38;;;10.20;48.79
21547;BME280;41275;51.912;4.388;2024-01-27T22:12:33;103356.88;;;10.11;48.89
21547;BME280;41275;51.912;4.388;2024-01-27T22:17:54;103353.53;;;10.01;48.99
21547;BME280;41275;51.912;4.388;2024-01-27T22:23:15;103308.50;;;9.76;49.17
21547;BME280;41275;51.912;4.388;2024-01-27T22:28:37;103332.13;;;9.78;49.42
21547;BME280;41275;51.912;4.388;2024-01-27T22:33:58;103325.50;;;9.74;49.68
21547;BME280;41275;51.912;4.388;2024-01-27T22:39:19;103300.38;;;9.70;49.51
21547;BME280;41275;51.912;4.388;2024-01-27T22:44:41;103302.88;;;9.71;49.89
21547;BME280;41275;51.912;4.388;2024-01-27T22:50:02;103297.91;;;9.68;49.84
21547;BME280;41275;51.912;4.388;2024-01-27T22:55:24;103292.41;;;9.62;49.94
21547;BME280;41275;51.912;4.388;2024-01-27T23:00:45;103292.06;;;9.56;49.75
21547;BME280;41275;51.912;4.388;2024-01-27T23:06:07;103297.84;;;9.52;50.30
21547;BME280;41275;51.912;4.388;2024-01-27T23:11:30;103294.69;;;9.48;50.17
21547;BME280;41275;51.912;4.388;2024-01-27T23:16:51;103285.94;;;9.48;49.84
21547;BME280;41275;51.912;4.388;2024-01-27T23:22:12;103289.09;;;9.51;50.22
21547;BME280;41275;51.912;4.388;2024-01-27T23:27:33;103291.88;;;9.50;49.64
21547;BME280;41275;51.912;4.388;2024-01-27T23:32:58;103269.06;;;9.49;50.11
21547;BME280;41275;51.912;4.388;2024-01-27T23:38:19;103274.00;;;9.44;49.83
21547;BME280;41275;51.912;4.388;2024-01-27T23:43:41;103265.41;;;9.42;50.29
21547;BME280;41275;51.912;4.388;2024-01-27T23:49:02;103258.78;;;9.38;49.60
21547;BME280;41275;51.912;4.388;2024-01-27T23:54:24;103248.69;;;9.33;49.67
21547;BME280;41275;51.912;4.388;2024-01-27T23:59:48;103243.88;;;9.28;49.90
